Counce, TN (38326)

4:41 AM CDT on October 26, 2014 (GMT -0500)
City | Change Station
CLOSE
Current Station
Personal Weather Station
Location: Corinth, MS
Elevation: 435 ft
Nearby Weather Stations
Active Advisory: Dense Fog Advisory

Elev 435 ft 34.95 °N, 88.50 °W | Updated 13 minutes ago

Partly Cloudy
Partly Cloudy
56.9 °F
Feels Like 56.9 °F
N
0.0
Wind Variable Wind from NNW
Gusts 0.0 mph

Today
High -- | Low -- °F
--% Chance of Precip.
Yesterday
High -- | Low -- °F
Precip. -- in
7:08 AM 6:04 PM
Waxing Crescent, 7% visible
Pressure 30.01 in
Visibility 6.0 miles
Clouds Few 100 ft
Dew Point 54 °F
Humidity 91%
Rainfall 0.00 in
Snow Depth Not available.
UV 0 out of 12
Pollen 1.30 out of 12
Air Quality Not available.
Flu Activity No Activity
METAR KCRX 260935Z AUTO 00000KT 6SM BR FEW001 12/12 A3001 RMK AO2

More Conditions Fewer Conditions

Pressure 30.01 in
Visibility 6.0 miles
Clouds Few 100 ft
Dew Point 54 °F
Humidity 91%
Rainfall 0.00 in
Snow Depth Not available.
UV 0 out of 12
Pollen 1.30 out of 12
Air Quality Not available.
Flu Activity No Activity
METAR KCRX 260935Z AUTO 00000KT 6SM BR FEW001 12/12 A3001 RMK AO2

More Conditions Fewer Conditions

10-Day Weather Forecast

Almanac

Astronomy

Oct. 26, 2014 Rise Set
Actual Time 7:08 AM CDT 6:04 PM CDT
Civil Twilight 6:42 AM CDT 6:30 PM CDT
Nautical Twilight 6:12 AM CDT 7:00 PM CDT
Astronomical Twilight 5:43 AM CDT 7:29 PM CDT
Moon 9:42 AM CDT 8:19 PM CDT
Length of Visible Light 11h 47m
Length of Day
10h 56m
Tomorrow will be 2m 1s shorter.
Waxing Crescent, 7% of the Moon is Illuminated
Today
Waxing Crescent
Oct 30
First Quarter
Nov 6
Full
Nov 14
Last Quarter
Nov 22
New

Today's Extremes

State Highs State Lows

Community

WunderPhotos

Upload Photos

1,765,132 photos uploaded!

Nearby

Snow Depth

Station Depth Elevation
No new snow has been reported.

Earthquake Activity

City Distance Mag. Time & Date
No recent earthquake activity has been reported nearby.
Minimum magnitude displayed is 2.5.

Coastal Water Temperatures

Place Temperature
No Stations Reporting

Nearby Weather Stations